sensor_id;sensor_type;location;lat;lon;timestamp;P1;durP1;ratioP1;P2;durP2;ratioP2
55372;SDS011;41249;47.838;16.490;2022-09-16T00:01:50;1.65;;;0.90;;
55372;SDS011;41249;47.838;16.490;2022-09-16T00:04:17;2.13;;;1.02;;
55372;SDS011;41249;47.838;16.490;2022-09-16T00:06:43;1.20;;;0.93;;
55372;SDS011;41249;47.838;16.490;2022-09-16T00:09:10;4.53;;;1.10;;
55372;SDS011;41249;47.838;16.490;2022-09-16T00:11:36;2.80;;;1.00;;
55372;SDS011;41249;47.838;16.490;2022-09-16T00:14:03;2.60;;;0.98;;
55372;SDS011;41249;47.838;16.490;2022-09-16T00:16:30;1.48;;;1.00;;
55372;SDS011;41249;47.838;16.490;2022-09-16T00:18:58;2.08;;;0.82;;
55372;SDS011;41249;47.838;16.490;2022-09-16T00:21:26;3.00;;;0.90;;
55372;SDS011;41249;47.838;16.490;2022-09-16T00:23:54;1.10;;;0.90;;
55372;SDS011;41249;47.838;16.490;2022-09-16T00:26:21;2.92;;;1.10;;
55372;SDS011;41249;47.838;16.490;2022-09-16T00:28:48;1.88;;;0.90;;
55372;SDS011;41249;47.838;16.490;2022-09-16T00:31:16;1.17;;;0.85;;
55372;SDS011;41249;47.838;16.490;2022-09-16T00:33:43;1.77;;;0.90;;
55372;SDS011;41249;47.838;16.490;2022-09-16T00:36:11;2.75;;;0.80;;
55372;SDS011;41249;47.838;16.490;2022-09-16T00:38:42;1.20;;;0.95;;
55372;SDS011;41249;47.838;16.490;2022-09-16T00:41:19;3.53;;;0.95;;
55372;SDS011;41249;47.838;16.490;2022-09-16T00:43:52;1.17;;;0.90;;
55372;SDS011;41249;47.838;16.490;2022-09-16T00:46:25;2.08;;;0.90;;
55372;SDS011;41249;47.838;16.490;2022-09-16T00:49:02;1.20;;;0.80;;
55372;SDS011;41249;47.838;16.490;2022-09-16T00:51:32;1.80;;;0.70;;
55372;SDS011;41249;47.838;16.490;2022-09-16T00:54:01;1.50;;;0.90;;
55372;SDS011;41249;47.838;16.490;2022-09-16T00:56:30;1.77;;;0.90;;
55372;SDS011;41249;47.838;16.490;2022-09-16T00:59:23;1.63;;;0.90;;
55372;SDS011;41249;47.838;16.490;2022-09-16T01:01:57;1.42;;;1.00;;
55372;SDS011;41249;47.838;16.490;2022-09-16T01:07:20;1.45;;;0.90;;
55372;SDS011;41249;47.838;16.490;2022-09-16T01:09:59;3.90;;;0.90;;
55372;SDS011;41249;47.838;16.490;2022-09-16T01:12:27;1.73;;;0.90;;
55372;SDS011;41249;47.838;16.490;2022-09-16T01:14:56;1.38;;;0.80;;
55372;SDS011;41249;47.838;16.490;2022-09-16T01:17:34;3.10;;;1.10;;
55372;SDS011;41249;47.838;16.490;2022-09-16T01:28:58;2.67;;;1.00;;
55372;SDS011;41249;47.838;16.490;2022-09-16T01:44:42;2.10;;;1.15;;
55372;SDS011;41249;47.838;16.490;2022-09-16T01:47:34;3.13;;;0.90;;
55372;SDS011;41249;47.838;16.490;2022-09-16T01:52:37;1.48;;;1.08;;
55372;SDS011;41249;47.838;16.490;2022-09-16T01:55:17;2.40;;;1.15;;
55372;SDS011;41249;47.838;16.490;2022-09-16T01:57:56;1.80;;;1.00;;
55372;SDS011;41249;47.838;16.490;2022-09-16T02:00:33;3.00;;;1.15;;
55372;SDS011;41249;47.838;16.490;2022-09-16T02:03:01;2.45;;;0.80;;
55372;SDS011;41249;47.838;16.490;2022-09-16T02:05:36;1.52;;;1.00;;
55372;SDS011;41249;47.838;16.490;2022-09-16T02:08:08;2.38;;;1.20;;
55372;SDS011;41249;47.838;16.490;2022-09-16T02:10:39;1.17;;;0.80;;
55372;SDS011;41249;47.838;16.490;2022-09-16T02:13:12;3.58;;;1.33;;
55372;SDS011;41249;47.838;16.490;2022-09-16T02:15:45;2.58;;;1.10;;
55372;SDS011;41249;47.838;16.490;2022-09-16T02:18:16;1.23;;;1.00;;
55372;SDS011;41249;47.838;16.490;2022-09-16T02:20:45;3.72;;;1.08;;
55372;SDS011;41249;47.838;16.490;2022-09-16T02:23:15;1.60;;;1.00;;
55372;SDS011;41249;47.838;16.490;2022-09-16T02:25:46;1.90;;;1.10;;
55372;SDS011;41249;47.838;16.490;2022-09-16T02:28:16;1.83;;;0.90;;
55372;SDS011;41249;47.838;16.490;2022-09-16T02:30:49;1.85;;;1.00;;
55372;SDS011;41249;47.838;16.490;2022-09-16T02:33:20;2.72;;;0.93;;
55372;SDS011;41249;47.838;16.490;2022-09-16T02:35:49;2.92;;;1.10;;
55372;SDS011;41249;47.838;16.490;2022-09-16T02:38:23;1.90;;;1.20;;
55372;SDS011;41249;47.838;16.490;2022-09-16T02:40:56;2.47;;;1.38;;
55372;SDS011;41249;47.838;16.490;2022-09-16T02:43:25;1.73;;;1.20;;
55372;SDS011;41249;47.838;16.490;2022-09-16T02:45:57;3.28;;;1.30;;
55372;SDS011;41249;47.838;16.490;2022-09-16T02:48:37;1.73;;;1.15;;
55372;SDS011;41249;47.838;16.490;2022-09-16T02:53:45;2.80;;;1.15;;
55372;SDS011;41249;47.838;16.490;2022-09-16T02:56:21;3.30;;;1.30;;
55372;SDS011;41249;47.838;16.490;2022-09-16T02:58:53;2.78;;;1.30;;
55372;SDS011;41249;47.838;16.490;2022-09-16T03:01:20;2.72;;;1.20;;
55372;SDS011;41249;47.838;16.490;2022-09-16T03:03:48;1.48;;;1.10;;
55372;SDS011;41249;47.838;16.490;2022-09-16T03:06:16;1.65;;;1.10;;
55372;SDS011;41249;47.838;16.490;2022-09-16T03:08:45;2.20;;;1.20;;
55372;SDS011;41249;47.838;16.490;2022-09-16T03:24:55;2.47;;;1.27;;
55372;SDS011;41249;47.838;16.490;2022-09-16T03:27:35;1.50;;;1.13;;
55372;SDS011;41249;47.838;16.490;2022-09-16T03:30:11;1.52;;;1.17;;
55372;SDS011;41249;47.838;16.490;2022-09-16T03:32:48;2.22;;;1.30;;
55372;SDS011;41249;47.838;16.490;2022-09-16T03:35:29;3.28;;;1.20;;
55372;SDS011;41249;47.838;16.490;2022-09-16T03:37:58;2.10;;;1.20;;
55372;SDS011;41249;47.838;16.490;2022-09-16T03:40:27;2.03;;;1.00;;
55372;SDS011;41249;47.838;16.490;2022-09-16T03:42:56;2.70;;;1.20;;
55372;SDS011;41249;47.838;16.490;2022-09-16T03:45:23;1.50;;;1.08;;
55372;SDS011;41249;47.838;16.490;2022-09-16T03:47:50;2.03;;;1.20;;
55372;SDS011;41249;47.838;16.490;2022-09-16T03:50:18;1.27;;;1.10;;
55372;SDS011;41249;47.838;16.490;2022-09-16T03:52:45;1.58;;;1.00;;
55372;SDS011;41249;47.838;16.490;2022-09-16T03:55:12;2.80;;;1.23;;
55372;SDS011;41249;47.838;16.490;2022-09-16T03:57:38;1.80;;;1.20;;
55372;SDS011;41249;47.838;16.490;2022-09-16T04:00:05;1.95;;;1.30;;
55372;SDS011;41249;47.838;16.490;2022-09-16T04:02:33;1.90;;;1.10;;
55372;SDS011;41249;47.838;16.490;2022-09-16T04:05:01;1.90;;;1.20;;
55372;SDS011;41249;47.838;16.490;2022-09-16T04:07:27;3.13;;;1.23;;
55372;SDS011;41249;47.838;16.490;2022-09-16T04:09:54;4.38;;;1.15;;
55372;SDS011;41249;47.838;16.490;2022-09-16T04:12:20;1.83;;;1.20;;
55372;SDS011;41249;47.838;16.490;2022-09-16T04:14:47;3.28;;;1.52;;
55372;SDS011;41249;47.838;16.490;2022-09-16T04:17:13;1.75;;;1.20;;
55372;SDS011;41249;47.838;16.490;2022-09-16T04:19:40;2.40;;;1.20;;
55372;SDS011;41249;47.838;16.490;2022-09-16T04:22:06;1.92;;;1.20;;
55372;SDS011;41249;47.838;16.490;2022-09-16T04:24:33;3.85;;;1.40;;
55372;SDS011;41249;47.838;16.490;2022-09-16T04:27:00;2.67;;;1.10;;
55372;SDS011;41249;47.838;16.490;2022-09-16T04:29:27;2.88;;;1.13;;
55372;SDS011;41249;47.838;16.490;2022-09-16T04:31:54;1.23;;;1.02;;
55372;SDS011;41249;47.838;16.490;2022-09-16T04:34:20;2.30;;;1.20;;
55372;SDS011;41249;47.838;16.490;2022-09-16T04:36:47;1.90;;;1.00;;
55372;SDS011;41249;47.838;16.490;2022-09-16T04:39:14;2.08;;;1.10;;
55372;SDS011;41249;47.838;16.490;2022-09-16T04:41:40;1.10;;;1.00;;
55372;SDS011;41249;47.838;16.490;2022-09-16T04:44:08;2.47;;;1.25;;
55372;SDS011;41249;47.838;16.490;2022-09-16T04:46:35;2.90;;;1.25;;
55372;SDS011;41249;47.838;16.490;2022-09-16T04:49:02;2.55;;;1.20;;
55372;SDS011;41249;47.838;16.490;2022-09-16T04:51:29;2.40;;;1.33;;
55372;SDS011;41249;47.838;16.490;2022-09-16T04:53:57;2.03;;;1.08;;
55372;SDS011;41249;47.838;16.490;2022-09-16T04:56:25;1.83;;;1.10;;
55372;SDS011;41249;47.838;16.490;2022-09-16T04:59:00;3.80;;;1.40;;
55372;SDS011;41249;47.838;16.490;2022-09-16T05:01:29;1.52;;;1.00;;
55372;SDS011;41249;47.838;16.490;2022-09-16T05:03:58;1.48;;;1.10;;
55372;SDS011;41249;47.838;16.490;2022-09-16T05:06:27;3.35;;;1.60;;
55372;SDS011;41249;47.838;16.490;2022-09-16T05:08:56;3.70;;;1.70;;
55372;SDS011;41249;47.838;16.490;2022-09-16T05:11:26;6.25;;;2.05;;
55372;SDS011;41249;47.838;16.490;2022-09-16T05:13:57;4.97;;;2.00;;
55372;SDS011;41249;47.838;16.490;2022-09-16T05:16:24;7.15;;;1.90;;
55372;SDS011;41249;47.838;16.490;2022-09-16T05:18:52;5.13;;;2.17;;
55372;SDS011;41249;47.838;16.490;2022-09-16T05:21:22;2.83;;;2.03;;
55372;SDS011;41249;47.838;16.490;2022-09-16T05:23:51;4.55;;;2.13;;
55372;SDS011;41249;47.838;16.490;2022-09-16T05:26:19;2.80;;;1.92;;
55372;SDS011;41249;47.838;16.490;2022-09-16T05:28:47;5.50;;;1.80;;
55372;SDS011;41249;47.838;16.490;2022-09-16T05:31:17;3.65;;;2.05;;
55372;SDS011;41249;47.838;16.490;2022-09-16T05:33:47;4.07;;;2.08;;
55372;SDS011;41249;47.838;16.490;2022-09-16T05:36:30;3.63;;;2.40;;
55372;SDS011;41249;47.838;16.490;2022-09-16T05:38:58;7.38;;;2.63;;
55372;SDS011;41249;47.838;16.490;2022-09-16T05:41:46;2.90;;;2.40;;
55372;SDS011;41249;47.838;16.490;2022-09-16T05:44:13;4.90;;;2.40;;
55372;SDS011;41249;47.838;16.490;2022-09-16T05:46:39;5.13;;;2.80;;
55372;SDS011;41249;47.838;16.490;2022-09-16T05:49:07;3.60;;;2.33;;
55372;SDS011;41249;47.838;16.490;2022-09-16T05:51:35;4.45;;;2.65;;
55372;SDS011;41249;47.838;16.490;2022-09-16T05:54:03;3.15;;;2.22;;
55372;SDS011;41249;47.838;16.490;2022-09-16T05:56:30;5.88;;;2.30;;
55372;SDS011;41249;47.838;16.490;2022-09-16T05:58:57;5.18;;;2.58;;
55372;SDS011;41249;47.838;16.490;2022-09-16T06:01:26;6.85;;;2.53;;
55372;SDS011;41249;47.838;16.490;2022-09-16T06:04:01;3.67;;;2.50;;
55372;SDS011;41249;47.838;16.490;2022-09-16T06:06:30;7.03;;;2.92;;
55372;SDS011;41249;47.838;16.490;2022-09-16T06:08:59;5.30;;;2.70;;
55372;SDS011;41249;47.838;16.490;2022-09-16T06:11:30;5.90;;;2.75;;
55372;SDS011;41249;47.838;16.490;2022-09-16T06:13:58;6.10;;;2.63;;
55372;SDS011;41249;47.838;16.490;2022-09-16T06:16:27;3.17;;;2.58;;
55372;SDS011;41249;47.838;16.490;2022-09-16T06:18:58;6.30;;;2.65;;
55372;SDS011;41249;47.838;16.490;2022-09-16T06:21:26;8.57;;;2.50;;
55372;SDS011;41249;47.838;16.490;2022-09-16T06:23:54;6.20;;;2.50;;
55372;SDS011;41249;47.838;16.490;2022-09-16T06:26:22;7.07;;;2.63;;
55372;SDS011;41249;47.838;16.490;2022-09-16T06:28:50;5.47;;;2.30;;
55372;SDS011;41249;47.838;16.490;2022-09-16T06:31:22;8.48;;;2.55;;
55372;SDS011;41249;47.838;16.490;2022-09-16T06:33:50;3.92;;;2.50;;
55372;SDS011;41249;47.838;16.490;2022-09-16T06:36:21;4.05;;;2.42;;
55372;SDS011;41249;47.838;16.490;2022-09-16T06:38:49;7.03;;;2.63;;
55372;SDS011;41249;47.838;16.490;2022-09-16T06:41:17;4.07;;;2.50;;
55372;SDS011;41249;47.838;16.490;2022-09-16T06:43:45;4.25;;;2.80;;
55372;SDS011;41249;47.838;16.490;2022-09-16T06:46:13;3.85;;;2.50;;
55372;SDS011;41249;47.838;16.490;2022-09-16T06:48:44;3.30;;;2.88;;
55372;SDS011;41249;47.838;16.490;2022-09-16T06:51:13;5.75;;;3.00;;
55372;SDS011;41249;47.838;16.490;2022-09-16T06:53:42;4.88;;;2.55;;
55372;SDS011;41249;47.838;16.490;2022-09-16T06:56:10;6.70;;;2.53;;
55372;SDS011;41249;47.838;16.490;2022-09-16T06:58:39;3.90;;;2.80;;
55372;SDS011;41249;47.838;16.490;2022-09-16T07:01:08;4.57;;;2.85;;
55372;SDS011;41249;47.838;16.490;2022-09-16T07:03:37;10.00;;;3.30;;
55372;SDS011;41249;47.838;16.490;2022-09-16T07:06:06;8.85;;;3.42;;
55372;SDS011;41249;47.838;16.490;2022-09-16T07:08:33;7.28;;;2.97;;
55372;SDS011;41249;47.838;16.490;2022-09-16T07:11:09;6.43;;;3.58;;
55372;SDS011;41249;47.838;16.490;2022-09-16T07:13:38;7.07;;;3.30;;
55372;SDS011;41249;47.838;16.490;2022-09-16T07:16:09;4.93;;;2.75;;
55372;SDS011;41249;47.838;16.490;2022-09-16T07:18:39;6.30;;;3.10;;
55372;SDS011;41249;47.838;16.490;2022-09-16T07:21:07;6.57;;;2.75;;
55372;SDS011;41249;47.838;16.490;2022-09-16T07:23:36;6.43;;;2.63;;
55372;SDS011;41249;47.838;16.490;2022-09-16T07:26:05;3.67;;;2.50;;
55372;SDS011;41249;47.838;16.490;2022-09-16T07:28:32;4.07;;;2.65;;
55372;SDS011;41249;47.838;16.490;2022-09-16T07:31:00;6.60;;;2.35;;
55372;SDS011;41249;47.838;16.490;2022-09-16T07:33:28;4.57;;;2.90;;
55372;SDS011;41249;47.838;16.490;2022-09-16T07:36:00;3.72;;;2.60;;
55372;SDS011;41249;47.838;16.490;2022-09-16T07:38:28;4.90;;;2.80;;
55372;SDS011;41249;47.838;16.490;2022-09-16T07:40:55;4.68;;;2.70;;
55372;SDS011;41249;47.838;16.490;2022-09-16T07:45:55;5.40;;;3.30;;
55372;SDS011;41249;47.838;16.490;2022-09-16T07:48:23;5.28;;;3.47;;
55372;SDS011;41249;47.838;16.490;2022-09-16T07:50:54;5.22;;;2.78;;
55372;SDS011;41249;47.838;16.490;2022-09-16T07:53:22;4.30;;;2.95;;
55372;SDS011;41249;47.838;16.490;2022-09-16T07:55:52;4.60;;;3.00;;
55372;SDS011;41249;47.838;16.490;2022-09-16T07:58:19;11.75;;;3.05;;
55372;SDS011;41249;47.838;16.490;2022-09-16T08:00:47;5.75;;;2.80;;
55372;SDS011;41249;47.838;16.490;2022-09-16T08:03:14;6.32;;;3.08;;
55372;SDS011;41249;47.838;16.490;2022-09-16T08:05:41;5.60;;;2.72;;
55372;SDS011;41249;47.838;16.490;2022-09-16T08:08:08;5.45;;;2.80;;
55372;SDS011;41249;47.838;16.490;2022-09-16T08:10:34;4.13;;;2.97;;
55372;SDS011;41249;47.838;16.490;2022-09-16T08:13:03;8.10;;;3.05;;
55372;SDS011;41249;47.838;16.490;2022-09-16T08:15:30;4.00;;;3.03;;
55372;SDS011;41249;47.838;16.490;2022-09-16T08:17:56;21.58;;;4.55;;
55372;SDS011;41249;47.838;16.490;2022-09-16T08:20:23;5.40;;;3.35;;
55372;SDS011;41249;47.838;16.490;2022-09-16T08:22:51;4.43;;;3.00;;
55372;SDS011;41249;47.838;16.490;2022-09-16T08:25:23;4.30;;;3.20;;
55372;SDS011;41249;47.838;16.490;2022-09-16T08:27:49;10.05;;;3.30;;
55372;SDS011;41249;47.838;16.490;2022-09-16T08:30:21;3.80;;;2.90;;
55372;SDS011;41249;47.838;16.490;2022-09-16T08:32:54;4.13;;;2.90;;
55372;SDS011;41249;47.838;16.490;2022-09-16T08:35:21;6.05;;;2.97;;
55372;SDS011;41249;47.838;16.490;2022-09-16T08:37:48;4.72;;;2.90;;
55372;SDS011;41249;47.838;16.490;2022-09-16T08:40:15;5.22;;;3.35;;
55372;SDS011;41249;47.838;16.490;2022-09-16T08:49:15;5.20;;;2.70;;
55372;SDS011;41249;47.838;16.490;2022-09-16T08:51:26;7.95;;;3.50;;
55372;SDS011;41249;47.838;16.490;2022-09-16T08:54:01;7.57;;;3.20;;
55372;SDS011;41249;47.838;16.490;2022-09-16T08:56:32;5.70;;;2.92;;
55372;SDS011;41249;47.838;16.490;2022-09-16T08:59:11;4.03;;;2.92;;
55372;SDS011;41249;47.838;16.490;2022-09-16T09:01:43;8.57;;;3.20;;
55372;SDS011;41249;47.838;16.490;2022-09-16T09:04:17;6.65;;;3.40;;
55372;SDS011;41249;47.838;16.490;2022-09-16T09:17:44;5.93;;;2.83;;
55372;SDS011;41249;47.838;16.490;2022-09-16T09:26:03;5.65;;;2.20;;
55372;SDS011;41249;47.838;16.490;2022-09-16T09:29:01;7.05;;;2.53;;
55372;SDS011;41249;47.838;16.490;2022-09-16T09:32:04;5.45;;;2.22;;
55372;SDS011;41249;47.838;16.490;2022-09-16T09:43:08;4.22;;;2.50;;
55372;SDS011;41249;47.838;16.490;2022-09-16T09:45:43;4.28;;;2.42;;
55372;SDS011;41249;47.838;16.490;2022-09-16T09:48:30;4.03;;;2.50;;
55372;SDS011;41249;47.838;16.490;2022-09-16T09:53:46;6.67;;;2.90;;
55372;SDS011;41249;47.838;16.490;2022-09-16T09:56:39;8.95;;;2.70;;
55372;SDS011;41249;47.838;16.490;2022-09-16T09:59:22;5.70;;;2.30;;
55372;SDS011;41249;47.838;16.490;2022-09-16T10:01:55;4.20;;;2.35;;
55372;SDS011;41249;47.838;16.490;2022-09-16T10:04:23;6.97;;;2.60;;
55372;SDS011;41249;47.838;16.490;2022-09-16T10:06:50;3.17;;;2.53;;
55372;SDS011;41249;47.838;16.490;2022-09-16T10:12:24;5.53;;;2.30;;
55372;SDS011;41249;47.838;16.490;2022-09-16T10:14:56;4.30;;;2.13;;
55372;SDS011;41249;47.838;16.490;2022-09-16T10:17:23;5.95;;;2.55;;
55372;SDS011;41249;47.838;16.490;2022-09-16T10:19:52;6.00;;;2.30;;
55372;SDS011;41249;47.838;16.490;2022-09-16T10:25:26;3.92;;;2.40;;
55372;SDS011;41249;47.838;16.490;2022-09-16T10:27:58;3.92;;;2.22;;
55372;SDS011;41249;47.838;16.490;2022-09-16T10:30:27;5.13;;;2.30;;
55372;SDS011;41249;47.838;16.490;2022-09-16T10:35:37;5.70;;;2.50;;
55372;SDS011;41249;47.838;16.490;2022-09-16T10:40:38;3.55;;;2.30;;
55372;SDS011;41249;47.838;16.490;2022-09-16T10:43:15;6.43;;;2.67;;
55372;SDS011;41249;47.838;16.490;2022-09-16T10:45:44;4.28;;;2.50;;
55372;SDS011;41249;47.838;16.490;2022-09-16T10:48:16;4.37;;;2.77;;
55372;SDS011;41249;47.838;16.490;2022-09-16T10:53:31;8.02;;;2.50;;
55372;SDS011;41249;47.838;16.490;2022-09-16T10:56:03;4.97;;;3.22;;
55372;SDS011;41249;47.838;16.490;2022-09-16T11:04:07;7.07;;;1.20;;
55372;SDS011;41249;47.838;16.490;2022-09-16T11:06:49;1.73;;;1.10;;
55372;SDS011;41249;47.838;16.490;2022-09-16T11:09:24;2.35;;;1.42;;
55372;SDS011;41249;47.838;16.490;2022-09-16T11:14:35;2.38;;;1.30;;
55372;SDS011;41249;47.838;16.490;2022-09-16T11:17:16;2.10;;;1.25;;
55372;SDS011;41249;47.838;16.490;2022-09-16T11:19:59;2.25;;;1.33;;
55372;SDS011;41249;47.838;16.490;2022-09-16T11:26:14;1.98;;;1.40;;
55372;SDS011;41249;47.838;16.490;2022-09-16T11:31:50;3.70;;;1.52;;
55372;SDS011;41249;47.838;16.490;2022-09-16T11:42:41;4.93;;;1.52;;
55372;SDS011;41249;47.838;16.490;2022-09-16T11:45:28;2.92;;;1.60;;
55372;SDS011;41249;47.838;16.490;2022-09-16T11:55:49;2.80;;;1.60;;
55372;SDS011;41249;47.838;16.490;2022-09-16T11:58:25;2.85;;;1.58;;
55372;SDS011;41249;47.838;16.490;2022-09-16T12:01:10;3.83;;;1.70;;
55372;SDS011;41249;47.838;16.490;2022-09-16T12:03:54;3.15;;;1.60;;
55372;SDS011;41249;47.838;16.490;2022-09-16T12:06:29;1.92;;;1.58;;
55372;SDS011;41249;47.838;16.490;2022-09-16T12:09:15;2.15;;;1.90;;
55372;SDS011;41249;47.838;16.490;2022-09-16T12:11:47;3.33;;;1.60;;
55372;SDS011;41249;47.838;16.490;2022-09-16T12:14:24;2.25;;;1.70;;
55372;SDS011;41249;47.838;16.490;2022-09-16T12:17:03;3.70;;;1.95;;
55372;SDS011;41249;47.838;16.490;2022-09-16T12:19:39;2.78;;;1.80;;
55372;SDS011;41249;47.838;16.490;2022-09-16T12:25:06;2.90;;;1.77;;
55372;SDS011;41249;47.838;16.490;2022-09-16T12:30:21;2.22;;;1.73;;
55372;SDS011;41249;47.838;16.490;2022-09-16T12:33:02;3.30;;;1.65;;
55372;SDS011;41249;47.838;16.490;2022-09-16T12:38:14;3.55;;;1.77;;
55372;SDS011;41249;47.838;16.490;2022-09-16T12:43:22;4.57;;;1.63;;
55372;SDS011;41249;47.838;16.490;2022-09-16T12:54:47;1.92;;;1.50;;
55372;SDS011;41249;47.838;16.490;2022-09-16T13:00:31;3.67;;;1.60;;
55372;SDS011;41249;47.838;16.490;2022-09-16T13:03:09;6.50;;;2.22;;
55372;SDS011;41249;47.838;16.490;2022-09-16T13:05:44;2.72;;;1.55;;
55372;SDS011;41249;47.838;16.490;2022-09-16T13:08:24;2.72;;;1.50;;
55372;SDS011;41249;47.838;16.490;2022-09-16T13:11:03;2.90;;;1.70;;
55372;SDS011;41249;47.838;16.490;2022-09-16T13:13:56;2.03;;;1.60;;
55372;SDS011;41249;47.838;16.490;2022-09-16T13:16:28;2.28;;;1.65;;
55372;SDS011;41249;47.838;16.490;2022-09-16T13:19:23;5.53;;;1.70;;
55372;SDS011;41249;47.838;16.490;2022-09-16T13:21:54;2.20;;;1.67;;
55372;SDS011;41249;47.838;16.490;2022-09-16T13:24:27;5.90;;;1.95;;
55372;SDS011;41249;47.838;16.490;2022-09-16T13:27:00;4.35;;;1.83;;
55372;SDS011;41249;47.838;16.490;2022-09-16T13:29:30;2.85;;;1.42;;
55372;SDS011;41249;47.838;16.490;2022-09-16T13:32:03;2.33;;;1.60;;
55372;SDS011;41249;47.838;16.490;2022-09-16T13:34:31;2.70;;;2.00;;
55372;SDS011;41249;47.838;16.490;2022-09-16T13:36:57;2.85;;;1.90;;
55372;SDS011;41249;47.838;16.490;2022-09-16T13:39:28;2.88;;;2.03;;
55372;SDS011;41249;47.838;16.490;2022-09-16T13:42:08;2.58;;;1.98;;
55372;SDS011;41249;47.838;16.490;2022-09-16T13:49:58;2.97;;;1.92;;
55372;SDS011;41249;47.838;16.490;2022-09-16T13:52:27;3.65;;;2.13;;
55372;SDS011;41249;47.838;16.490;2022-09-16T13:54:56;4.65;;;2.00;;
55372;SDS011;41249;47.838;16.490;2022-09-16T14:00:36;2.20;;;1.60;;
55372;SDS011;41249;47.838;16.490;2022-09-16T14:08:57;2.85;;;1.85;;
55372;SDS011;41249;47.838;16.490;2022-09-16T14:14:21;2.60;;;1.80;;
55372;SDS011;41249;47.838;16.490;2022-09-16T14:17:18;2.70;;;1.90;;
55372;SDS011;41249;47.838;16.490;2022-09-16T14:19:48;2.50;;;1.58;;
55372;SDS011;41249;47.838;16.490;2022-09-16T14:22:19;4.20;;;1.85;;
55372;SDS011;41249;47.838;16.490;2022-09-16T14:24:48;2.35;;;1.73;;
55372;SDS011;41249;47.838;16.490;2022-09-16T14:27:33;2.67;;;1.42;;
55372;SDS011;41249;47.838;16.490;2022-09-16T14:30:20;5.90;;;1.70;;
55372;SDS011;41249;47.838;16.490;2022-09-16T14:32:46;3.03;;;2.00;;
55372;SDS011;41249;47.838;16.490;2022-09-16T14:37:52;2.78;;;2.30;;
55372;SDS011;41249;47.838;16.490;2022-09-16T14:40:24;2.35;;;1.63;;
55372;SDS011;41249;47.838;16.490;2022-09-16T14:45:30;2.33;;;1.60;;
55372;SDS011;41249;47.838;16.490;2022-09-16T14:48:00;2.63;;;1.60;;
55372;SDS011;41249;47.838;16.490;2022-09-16T14:50:31;3.28;;;1.70;;
55372;SDS011;41249;47.838;16.490;2022-09-16T14:53:03;2.33;;;1.55;;
55372;SDS011;41249;47.838;16.490;2022-09-16T14:55:33;2.78;;;1.80;;
55372;SDS011;41249;47.838;16.490;2022-09-16T14:58:05;2.88;;;1.88;;
55372;SDS011;41249;47.838;16.490;2022-09-16T15:00:39;1.70;;;1.42;;
55372;SDS011;41249;47.838;16.490;2022-09-16T15:03:29;2.60;;;1.67;;
55372;SDS011;41249;47.838;16.490;2022-09-16T15:06:05;2.88;;;1.70;;
55372;SDS011;41249;47.838;16.490;2022-09-16T15:08:47;2.53;;;1.67;;
55372;SDS011;41249;47.838;16.490;2022-09-16T15:11:18;2.33;;;1.58;;
55372;SDS011;41249;47.838;16.490;2022-09-16T15:14:08;2.13;;;1.48;;
55372;SDS011;41249;47.838;16.490;2022-09-16T15:16:40;2.00;;;1.42;;
55372;SDS011;41249;47.838;16.490;2022-09-16T15:19:33;1.98;;;1.58;;
55372;SDS011;41249;47.838;16.490;2022-09-16T15:24:30;5.25;;;1.40;;
55372;SDS011;41249;47.838;16.490;2022-09-16T15:26:59;5.93;;;1.58;;
55372;SDS011;41249;47.838;16.490;2022-09-16T15:29:28;3.72;;;1.58;;
55372;SDS011;41249;47.838;16.490;2022-09-16T15:32:17;3.13;;;1.65;;
55372;SDS011;41249;47.838;16.490;2022-09-16T15:37:35;6.65;;;1.88;;
55372;SDS011;41249;47.838;16.490;2022-09-16T15:42:47;1.95;;;1.55;;
55372;SDS011;41249;47.838;16.490;2022-09-16T15:45:26;4.03;;;1.50;;
55372;SDS011;41249;47.838;16.490;2022-09-16T15:48:00;3.28;;;1.90;;
55372;SDS011;41249;47.838;16.490;2022-09-16T15:50:35;1.90;;;1.35;;
55372;SDS011;41249;47.838;16.490;2022-09-16T15:53:21;4.30;;;1.92;;
55372;SDS011;41249;47.838;16.490;2022-09-16T15:55:58;2.20;;;1.60;;
55372;SDS011;41249;47.838;16.490;2022-09-16T15:59:05;1.80;;;1.50;;
55372;SDS011;41249;47.838;16.490;2022-09-16T16:01:50;2.03;;;1.42;;
55372;SDS011;41249;47.838;16.490;2022-09-16T16:04:31;3.08;;;1.50;;
55372;SDS011;41249;47.838;16.490;2022-09-16T16:06:59;2.78;;;1.95;;
55372;SDS011;41249;47.838;16.490;2022-09-16T16:11:54;2.15;;;1.65;;
55372;SDS011;41249;47.838;16.490;2022-09-16T16:14:22;2.78;;;1.63;;
55372;SDS011;41249;47.838;16.490;2022-09-16T16:16:50;2.50;;;1.35;;
55372;SDS011;41249;47.838;16.490;2022-09-16T16:19:37;2.85;;;1.80;;
55372;SDS011;41249;47.838;16.490;2022-09-16T16:22:05;2.47;;;1.70;;
55372;SDS011;41249;47.838;16.490;2022-09-16T16:24:32;3.70;;;1.83;;
55372;SDS011;41249;47.838;16.490;2022-09-16T16:26:59;2.67;;;1.70;;
55372;SDS011;41249;47.838;16.490;2022-09-16T16:29:25;4.68;;;2.10;;
55372;SDS011;41249;47.838;16.490;2022-09-16T16:34:33;6.70;;;2.22;;
55372;SDS011;41249;47.838;16.490;2022-09-16T16:37:05;3.33;;;1.90;;
55372;SDS011;41249;47.838;16.490;2022-09-16T16:39:32;2.60;;;2.13;;
55372;SDS011;41249;47.838;16.490;2022-09-16T16:42:00;2.58;;;1.50;;
55372;SDS011;41249;47.838;16.490;2022-09-16T16:44:30;2.55;;;1.80;;
55372;SDS011;41249;47.838;16.490;2022-09-16T16:46:58;2.83;;;1.55;;
55372;SDS011;41249;47.838;16.490;2022-09-16T16:49:24;3.15;;;1.63;;
55372;SDS011;41249;47.838;16.490;2022-09-16T16:51:51;2.60;;;1.90;;
55372;SDS011;41249;47.838;16.490;2022-09-16T16:54:23;2.45;;;1.83;;
55372;SDS011;41249;47.838;16.490;2022-09-16T16:56:50;2.30;;;1.90;;
55372;SDS011;41249;47.838;16.490;2022-09-16T16:59:16;3.42;;;1.80;;
55372;SDS011;41249;47.838;16.490;2022-09-16T17:01:44;3.83;;;1.92;;
55372;SDS011;41249;47.838;16.490;2022-09-16T17:04:14;4.80;;;1.90;;
55372;SDS011;41249;47.838;16.490;2022-09-16T17:06:41;3.28;;;2.10;;
55372;SDS011;41249;47.838;16.490;2022-09-16T17:09:08;2.65;;;2.00;;
55372;SDS011;41249;47.838;16.490;2022-09-16T17:11:54;3.88;;;1.92;;
55372;SDS011;41249;47.838;16.490;2022-09-16T17:14:22;1.98;;;1.75;;
55372;SDS011;41249;47.838;16.490;2022-09-16T17:16:50;1.73;;;1.55;;
55372;SDS011;41249;47.838;16.490;2022-09-16T17:19:20;2.65;;;1.88;;
55372;SDS011;41249;47.838;16.490;2022-09-16T17:21:48;2.58;;;2.00;;
55372;SDS011;41249;47.838;16.490;2022-09-16T17:24:16;2.88;;;2.03;;
55372;SDS011;41249;47.838;16.490;2022-09-16T17:26:43;3.20;;;1.60;;
55372;SDS011;41249;47.838;16.490;2022-09-16T17:29:10;1.70;;;1.45;;
55372;SDS011;41249;47.838;16.490;2022-09-16T17:31:41;2.17;;;1.90;;
55372;SDS011;41249;47.838;16.490;2022-09-16T17:34:10;3.65;;;2.40;;
55372;SDS011;41249;47.838;16.490;2022-09-16T17:36:40;2.72;;;1.63;;
55372;SDS011;41249;47.838;16.490;2022-09-16T17:41:40;2.80;;;1.80;;
55372;SDS011;41249;47.838;16.490;2022-09-16T17:44:11;3.22;;;1.92;;
55372;SDS011;41249;47.838;16.490;2022-09-16T17:46:39;4.28;;;1.73;;
55372;SDS011;41249;47.838;16.490;2022-09-16T17:49:12;2.08;;;1.67;;
55372;SDS011;41249;47.838;16.490;2022-09-16T17:51:41;2.58;;;1.73;;
55372;SDS011;41249;47.838;16.490;2022-09-16T17:54:08;3.00;;;2.65;;
55372;SDS011;41249;47.838;16.490;2022-09-16T17:56:35;4.30;;;2.70;;
55372;SDS011;41249;47.838;16.490;2022-09-16T17:59:02;2.55;;;1.98;;
55372;SDS011;41249;47.838;16.490;2022-09-16T18:01:29;2.40;;;1.80;;
55372;SDS011;41249;47.838;16.490;2022-09-16T18:03:56;3.45;;;2.28;;
55372;SDS011;41249;47.838;16.490;2022-09-16T18:06:24;2.55;;;2.22;;